Ailey, GA (30410)

4:06 PM EDT on July 24, 2014 (GMT -0400)
South Treutlen Co. (KGATARRY2) Elev 236 ft | 32.32 °N, 82.60 °W | Change Station

Current weather conditions updated 2 seconds ago

Partly Cloudy
Partly Cloudy
90.8 °F
Feels Like 100 °F
N
0.0
Wind Variable Wind from North
Gusts 1.0 mph

Tomorrow is forecast to be nearly the same temperature as today. Showers and thunderstorms late.

Today
High -- | Low -- °F
--% Chance of Precip.
Yesterday
High -- | Low -- °F
Precip. -- in
6:39 AM 8:32 PM
Waning Crescent, 4% visible
Pressure 29.94 in
Visibility 10.0 miles
Clouds Scattered Clouds 5000 ft
Heat Index 100 °F
Dew Point 74 °F
Humidity 57%
Rainfall 0.00 in
Snow Depth Not available.
UV 8 out of 12
Pollen 4.40 out of 12
Air Quality Not available.
Flu Activity Not available.
METAR KAZE 241955Z AUTO 22005KT 10SM SCT050 34/21 A2994 RMK AO2 T03440209

More Conditions Fewer Conditions

Pressure 29.94 in
Visibility 10.0 miles
Clouds Scattered Clouds 5000 ft
Heat Index 100 °F
Dew Point 74 °F
Humidity 57%
Rainfall 0.00 in
Snow Depth Not available.
UV 8 out of 12
Pollen 4.40 out of 12
Air Quality Not available.
Flu Activity Not available.
METAR KAZE 241955Z AUTO 22005KT 10SM SCT050 34/21 A2994 RMK AO2 T03440209

More Conditions Fewer Conditions

10-Day Weather Forecast

Almanac

Astronomy

Jul. 24, 2014 Rise Set
Actual Time 6:39 AM EDT 8:32 PM EDT
Civil Twilight 6:12 AM EDT 9:00 PM EDT
Nautical Twilight 5:39 AM EDT 9:32 PM EDT
Astronomical Twilight 5:04 AM EDT 10:07 PM EDT
Moon 4:45 AM EDT 6:48 PM EDT
Length of Visible Light 14h 47m
Length of Day
13h 53m
Tomorrow will be 1m 16s shorter.
Waning Crescent, 4% of the Moon is Illuminated
Today
Waning Crescent
Jul 26
New
Aug 3
First Quarter
Aug 10
Full
Aug 17
Last Quarter

Today's Extremes

State Highs State Lows

Community

WunderPhotos

Upload Photos

1,737,107 photos uploaded!

Nearby

Snow Depth

Station Depth Elevation
No new snow has been reported.

Earthquake Activity

City Distance Mag. Time & Date
No recent earthquake activity has been reported nearby.
Minimum magnitude displayed is 2.5.

Coastal Water Temperatures

Place Temperature
No Stations Reporting

Nearby Weather Stations

Station Location Temp. Heat Index Dew Point Humidity Wind Precip. Elev Updated Type
South Treutlen Co., Soperton, GA 90.8 °F 100 °F 74 °F 57% North  at  0.0 mph 0.00 in / hr 236 ft 4:06 PM EDT Rapid Fire
Alamo, Alamo, GA 94.3 °F 106 °F 75 °F 54% SW  at  3.8 mph - / hr 259 ft 4:00 PM EDT Normal
RAWS MCRAE GA, McRae, GA 92 °F 96 °F 68 °F 45% WSW  at  6 mph 0.00 in / hr 201 ft 3:03 PM EDT MADIS

Show More Stations Show Fewer Stations